createdAt,value
2018-12-25T00:00:07.486Z,86.93
2018-12-25T00:01:07.514Z,87.55
2018-12-25T00:02:07.484Z,88.14
2018-12-25T00:03:07.497Z,88.35
2018-12-25T00:04:07.444Z,87.55
2018-12-25T00:05:07.433Z,87.45
2018-12-25T00:06:07.423Z,88.39
2018-12-25T00:07:07.414Z,87.76
2018-12-25T00:08:07.399Z,88.39
2018-12-25T00:09:07.433Z,87.76
2018-12-25T00:10:07.386Z,89.12
2018-12-25T00:11:07.377Z,89.75
2018-12-25T00:12:07.398Z,89.22
2018-12-25T00:13:07.344Z,89.12
2018-12-25T00:14:07.336Z,88.87
2018-12-25T00:15:07.323Z,88.18
2018-12-25T00:16:07.319Z,87.83
2018-12-25T00:17:07.309Z,89.18
2018-12-25T00:18:07.334Z,87.83
2018-12-25T00:19:07.286Z,87.73
2018-12-25T00:20:07.267Z,86.58
2018-12-25T00:21:07.258Z,87.20
2018-12-25T00:22:07.246Z,87.62
2018-12-25T00:23:07.236Z,88.56
2018-12-25T00:24:07.270Z,88.24
2018-12-25T00:25:07.215Z,88.14
2018-12-25T00:26:07.239Z,88.24
2018-12-25T00:27:07.193Z,87.83
2018-12-25T00:28:07.184Z,87.52
2018-12-25T00:29:07.170Z,88.14
2018-12-25T00:30:07.218Z,88.56
2018-12-25T00:31:07.190Z,88.56
2018-12-25T00:32:07.138Z,88.56
2018-12-25T00:33:07.127Z,88.24
2018-12-25T00:34:07.121Z,87.52
2018-12-25T00:35:07.105Z,87.41
2018-12-25T00:36:07.379Z,87.93
2018-12-25T00:37:07.087Z,88.52
2018-12-25T00:38:07.073Z,87.37
2018-12-25T00:39:07.066Z,88.10
2018-12-25T00:40:07.050Z,86.65
2018-12-25T00:41:07.050Z,87.68
2018-12-25T00:42:07.072Z,87.62
2018-12-25T00:43:07.018Z,87.52
2018-12-25T00:44:07.008Z,87.83
2018-12-25T00:45:07.004Z,87.68
2018-12-25T00:46:07.037Z,88.62
2018-12-25T00:47:06.973Z,87.89
2018-12-25T00:48:06.968Z,87.89
2018-12-25T00:49:14.539Z,87.48
2018-12-25T00:50:07.941Z,87.68
2018-12-25T00:51:06.974Z,86.71
2018-12-25T00:52:06.928Z,86.85
2018-12-25T00:53:06.912Z,86.89
2018-12-25T00:54:06.901Z,86.99
2018-12-25T00:55:06.894Z,87.10
2018-12-25T00:56:06.927Z,87.20
2018-12-25T00:57:06.868Z,87.83
2018-12-25T00:58:06.856Z,88.24
2018-12-25T00:59:06.844Z,87.52
2018-12-25T01:00:06.851Z,88.24
2018-12-25T01:01:06.821Z,88.14
2018-12-25T01:02:06.851Z,87.83
2018-12-25T01:03:06.803Z,87.30
2018-12-25T01:04:06.792Z,87.73
2018-12-25T01:05:06.785Z,87.52
2018-12-25T01:06:06.782Z,88.10
2018-12-25T01:07:06.772Z,88.73
2018-12-25T01:08:06.799Z,87.48
2018-12-25T01:09:06.793Z,87.27
2018-12-25T01:10:06.727Z,86.96
2018-12-25T01:11:06.772Z,86.27
2018-12-25T01:12:06.701Z,86.85
2018-12-25T01:13:06.692Z,87.06
2018-12-25T01:14:06.722Z,87.06
2018-12-25T01:15:06.678Z,87.06
2018-12-25T01:16:06.662Z,86.65
2018-12-25T01:17:06.650Z,86.75
2018-12-25T01:18:06.638Z,86.27
2018-12-25T01:19:07.530Z,87.20
2018-12-25T01:20:06.655Z,86.99
2018-12-25T01:21:06.605Z,86.58
2018-12-25T01:22:06.593Z,87.10
2018-12-25T01:23:06.588Z,87.30
2018-12-25T01:24:06.620Z,87.93
2018-12-25T01:25:06.561Z,87.73
2018-12-25T01:26:06.559Z,88.56
2018-12-25T01:27:06.541Z,87.73
2018-12-25T01:28:06.528Z,87.73
2018-12-25T01:29:06.516Z,87.52
2018-12-25T01:30:06.553Z,86.89
2018-12-25T01:31:06.541Z,86.79
2018-12-25T01:32:06.489Z,86.58
2018-12-25T01:33:06.474Z,86.79
2018-12-25T01:34:06.466Z,87.30
2018-12-25T01:35:06.460Z,87.83
2018-12-25T01:36:06.441Z,86.99
2018-12-25T01:37:06.476Z,86.58
2018-12-25T01:38:06.423Z,86.79
2018-12-25T01:39:06.450Z,86.99
2018-12-25T01:40:06.403Z,87.37
2018-12-25T01:41:06.385Z,86.54
2018-12-25T01:42:06.377Z,87.16
2018-12-25T01:43:06.366Z,86.79
2018-12-25T01:44:06.401Z,86.89
2018-12-25T01:45:06.345Z,86.16
2018-12-25T01:46:06.332Z,87.79
2018-12-25T01:47:06.321Z,87.16
2018-12-25T01:48:06.311Z,86.75
2018-12-25T01:49:06.301Z,86.96
2018-12-25T01:50:06.330Z,86.54
2018-12-25T01:51:06.381Z,87.06
2018-12-25T01:52:06.266Z,87.27
2018-12-25T01:53:06.258Z,85.91
2018-12-25T01:54:06.245Z,86.81
2018-12-25T01:55:06.245Z,86.43
2018-12-25T01:56:06.265Z,86.33
2018-12-25T01:57:06.211Z,86.65
2018-12-25T01:58:06.202Z,87.79
2018-12-25T01:59:06.192Z,86.85
2018-12-25T02:00:06.181Z,86.12
2018-12-25T02:01:06.212Z,87.10
2018-12-25T02:02:06.158Z,87.83
2018-12-25T02:03:06.161Z,87.30
2018-12-25T02:04:06.136Z,86.43
2018-12-25T02:05:06.124Z,86.75
2018-12-25T02:06:06.116Z,87.16
2018-12-25T02:07:06.145Z,87.89
2018-12-25T02:08:06.100Z,87.54
2018-12-25T02:09:06.082Z,87.02
2018-12-25T02:10:06.116Z,86.22
2018-12-25T02:11:06.063Z,85.98
2018-12-25T02:12:06.097Z,86.19
2018-12-25T02:13:06.042Z,86.75
2018-12-25T02:14:06.029Z,85.50
2018-12-25T02:15:06.017Z,85.98
2018-12-25T02:16:06.006Z,86.29
2018-12-25T02:17:05.994Z,85.67
2018-12-25T02:18:06.029Z,85.67
2018-12-25T02:19:06.015Z,85.88
2018-12-25T02:20:05.972Z,85.67
2018-12-25T02:21:05.951Z,85.88
2018-12-25T02:22:05.941Z,86.50
2018-12-25T02:23:05.969Z,85.56
2018-12-25T02:24:05.920Z,85.88
2018-12-25T02:25:05.952Z,85.56
2018-12-25T02:26:05.898Z,86.19
2018-12-25T02:27:05.886Z,86.40
2018-12-25T02:28:05.875Z,85.77
2018-12-25T02:29:05.864Z,85.46
2018-12-25T02:30:05.855Z,85.14
2018-12-25T02:31:05.885Z,85.67
2018-12-25T02:32:05.833Z,86.40
2018-12-25T02:33:05.823Z,86.29
2018-12-25T02:34:05.815Z,85.14
2018-12-25T02:35:05.804Z,85.08
2018-12-25T02:36:05.832Z,86.29
2018-12-25T02:37:05.827Z,85.67
2018-12-25T02:38:05.800Z,85.60
2018-12-25T02:39:05.758Z,86.54
2018-12-25T02:40:05.747Z,86.40
2018-12-25T02:41:05.735Z,86.60
2018-12-25T02:42:05.720Z,86.33
2018-12-25T02:43:05.786Z,86.19
2018-12-25T02:44:05.703Z,86.29
2018-12-25T02:45:05.704Z,85.04
2018-12-25T02:46:05.678Z,85.67
2018-12-25T02:47:05.675Z,85.46
2018-12-25T02:48:05.659Z,86.08
2018-12-25T02:49:05.687Z,85.98
2018-12-25T02:50:05.648Z,85.11
2018-12-25T02:51:05.682Z,85.35
2018-12-25T02:52:05.636Z,85.42
2018-12-25T02:53:05.606Z,85.63
2018-12-25T02:54:05.593Z,85.67
2018-12-25T02:55:05.586Z,85.67
2018-12-25T02:56:05.575Z,85.25
2018-12-25T02:57:05.616Z,85.73
2018-12-25T02:58:05.550Z,85.14
2018-12-25T02:59:05.583Z,84.48
2018-12-25T03:00:06.818Z,84.94
2018-12-25T03:01:05.569Z,84.94
2018-12-25T03:02:05.508Z,85.52
2018-12-25T03:03:05.502Z,84.48
2018-12-25T03:04:05.496Z,85.42
2018-12-25T03:05:05.484Z,85.83
2018-12-25T03:06:05.509Z,85.63
2018-12-25T03:07:05.502Z,84.38
2018-12-25T03:08:05.458Z,84.27
2018-12-25T03:09:05.476Z,85.21
2018-12-25T03:10:05.427Z,85.63
2018-12-25T03:11:05.457Z,85.31
2018-12-25T03:12:05.405Z,85.73
2018-12-25T03:13:05.563Z,85.52
2018-12-25T03:14:05.379Z,84.80
2018-12-25T03:15:05.365Z,85.63
2018-12-25T03:16:05.405Z,85.42
2018-12-25T03:17:05.344Z,85.42
2018-12-25T03:18:05.338Z,86.04
2018-12-25T03:19:05.322Z,85.73
2018-12-25T03:20:05.313Z,85.42
2018-12-25T03:21:05.309Z,85.73
2018-12-25T03:22:05.328Z,85.31
2018-12-25T03:23:05.279Z,85.21
2018-12-25T03:24:05.270Z,85.00
2018-12-25T03:25:05.257Z,85.31
2018-12-25T03:26:05.306Z,85.98
2018-12-25T03:27:05.241Z,86.19
2018-12-25T03:28:05.237Z,85.88
2018-12-25T03:29:05.219Z,86.29
2018-12-25T03:30:05.257Z,86.77
2018-12-25T03:31:05.295Z,87.02
2018-12-25T03:32:05.184Z,86.35
2018-12-25T03:33:05.181Z,86.88
2018-12-25T03:34:05.163Z,86.77
2018-12-25T03:35:05.152Z,86.15
2018-12-25T03:36:05.140Z,85.83
2018-12-25T03:37:05.171Z,85.73
2018-12-25T03:38:05.115Z,85.83
2018-12-25T03:39:05.115Z,85.63
2018-12-25T03:40:05.095Z,85.63
2018-12-25T03:41:05.087Z,86.15
2018-12-25T03:42:05.077Z,85.73
2018-12-25T03:43:05.107Z,86.46
2018-12-25T03:44:05.054Z,86.46
2018-12-25T03:45:05.044Z,85.90
2018-12-25T03:46:05.088Z,85.42
2018-12-25T03:47:05.026Z,86.15
2018-12-25T03:48:05.010Z,85.11
2018-12-25T03:49:05.000Z,85.83
2018-12-25T03:50:10.671Z,86.25
2018-12-25T03:51:05.976Z,85.63
2018-12-25T03:52:04.975Z,85.63
2018-12-25T03:53:04.952Z,85.73
2018-12-25T03:54:05.002Z,85.83
2018-12-25T03:55:04.940Z,85.63
2018-12-25T03:56:04.923Z,85.52
2018-12-25T03:57:04.916Z,85.63
2018-12-25T03:58:04.907Z,85.00
2018-12-25T03:59:04.911Z,85.42
2018-12-25T04:00:04.921Z,85.63
2018-12-25T04:01:04.866Z,85.94
2018-12-25T04:02:04.857Z,85.52
2018-12-25T04:03:04.844Z,85.11
2018-12-25T04:04:04.838Z,85.73
2018-12-25T04:05:04.831Z,85.73
2018-12-25T04:06:04.854Z,85.83
2018-12-25T04:07:04.807Z,85.63
2018-12-25T04:08:04.795Z,86.46
2018-12-25T04:09:04.788Z,86.67
2018-12-25T04:10:04.784Z,85.83
2018-12-25T04:11:04.764Z,86.40
2018-12-25T04:12:04.793Z,86.77
2018-12-25T04:13:04.741Z,86.29
2018-12-25T04:14:04.751Z,86.60
2018-12-25T04:15:04.715Z,87.19
2018-12-25T04:16:04.748Z,86.46
2018-12-25T04:17:04.711Z,86.67
2018-12-25T04:18:04.681Z,86.88
2018-12-25T04:19:04.676Z,86.57
2018-12-25T04:20:04.678Z,85.94
2018-12-25T04:21:04.695Z,85.21
2018-12-25T04:22:04.640Z,85.52
2018-12-25T04:23:04.631Z,86.50
2018-12-25T04:24:04.619Z,86.88
2018-12-25T04:25:04.613Z,86.77
2018-12-25T04:26:04.602Z,85.94
2018-12-25T04:27:04.631Z,86.46
2018-12-25T04:28:04.574Z,86.25
2018-12-25T04:29:04.565Z,86.35
2018-12-25T04:30:04.603Z,86.35
2018-12-25T04:31:04.559Z,86.57
2018-12-25T04:32:04.547Z,86.46
2018-12-25T04:33:04.529Z,86.88
2018-12-25T04:34:04.511Z,86.15
2018-12-25T04:35:04.502Z,86.15
2018-12-25T04:36:04.596Z,85.94
2018-12-25T04:37:04.517Z,85.63
2018-12-25T04:38:04.470Z,86.35
2018-12-25T04:39:04.457Z,85.31
2018-12-25T04:40:04.447Z,85.90
2018-12-25T04:41:04.433Z,84.75
2018-12-25T04:42:04.471Z,85.31
2018-12-25T04:43:04.422Z,85.63
2018-12-25T04:44:04.402Z,85.63
2018-12-25T04:45:04.397Z,85.63
2018-12-25T04:46:04.422Z,85.83
2018-12-25T04:47:04.372Z,85.14
2018-12-25T04:48:04.361Z,85.67
2018-12-25T04:49:04.391Z,85.21
2018-12-25T04:50:04.348Z,85.94
2018-12-25T04:51:04.330Z,85.52
2018-12-25T04:52:04.320Z,85.94
2018-12-25T04:53:04.322Z,85.42
2018-12-25T04:54:04.292Z,85.94
2018-12-25T04:55:04.327Z,85.63
2018-12-25T04:56:04.275Z,85.06
2018-12-25T04:57:04.265Z,85.28
2018-12-25T04:58:04.250Z,85.28
2018-12-25T04:59:04.244Z,85.59
2018-12-25T05:00:04.256Z,84.80
2018-12-25T05:01:04.260Z,85.28
2018-12-25T05:02:04.237Z,84.34
2018-12-25T05:03:04.200Z,84.34
2018-12-25T05:04:04.188Z,84.75
2018-12-25T05:05:04.175Z,83.99
2018-12-25T05:06:04.205Z,84.13
2018-12-25T05:07:04.160Z,84.34
2018-12-25T05:08:04.154Z,83.82
2018-12-25T05:09:04.134Z,84.34
2018-12-25T05:10:04.133Z,84.96
2018-12-25T05:11:04.110Z,84.51
2018-12-25T05:12:04.153Z,83.72
2018-12-25T05:13:04.099Z,84.44
2018-12-25T05:14:04.080Z,84.44
2018-12-25T05:15:04.068Z,84.03
2018-12-25T05:16:04.067Z,83.61
2018-12-25T05:17:04.047Z,83.92
2018-12-25T05:18:04.078Z,84.34
2018-12-25T05:19:04.042Z,84.34
2018-12-25T05:20:04.056Z,84.13
2018-12-25T05:21:04.010Z,84.23
2018-12-25T05:22:03.989Z,83.82
2018-12-25T05:23:03.978Z,84.13
2018-12-25T05:24:03.971Z,83.51
2018-12-25T05:25:03.959Z,84.44
2018-12-25T05:26:03.998Z,84.44
2018-12-25T05:27:03.936Z,84.65
2018-12-25T05:28:03.930Z,84.03
2018-12-25T05:29:03.914Z,84.03
2018-12-25T05:30:03.913Z,84.65
2018-12-25T05:31:03.897Z,84.03
2018-12-25T05:32:03.928Z,84.34
2018-12-25T05:33:03.879Z,84.13
2018-12-25T05:34:03.860Z,84.03
2018-12-25T05:35:03.855Z,84.96
2018-12-25T05:36:03.841Z,84.13
2018-12-25T05:37:03.829Z,84.34
2018-12-25T05:38:03.863Z,83.61
2018-12-25T05:39:03.807Z,84.13
2018-12-25T05:40:03.798Z,84.86
2018-12-25T05:41:03.786Z,84.86
2018-12-25T05:42:03.802Z,84.03
2018-12-25T05:43:03.774Z,83.89
2018-12-25T05:44:03.804Z,83.72
2018-12-25T05:45:03.745Z,84.20
2018-12-25T05:46:03.738Z,84.09
2018-12-25T05:47:03.733Z,83.09
2018-12-25T05:48:03.723Z,83.82
2018-12-25T05:49:03.719Z,83.78
2018-12-25T05:50:03.750Z,84.09
2018-12-25T05:51:03.678Z,83.47
2018-12-25T05:52:03.671Z,83.47
2018-12-25T05:53:03.668Z,83.47
2018-12-25T05:54:03.643Z,83.68
2018-12-25T05:55:03.633Z,83.68
2018-12-25T05:56:03.666Z,83.05
2018-12-25T05:57:03.611Z,83.47
2018-12-25T05:58:03.601Z,83.26
2018-12-25T05:59:03.592Z,83.47
2018-12-25T06:00:03.585Z,83.16
2018-12-25T06:01:03.587Z,84.20
2018-12-25T06:02:03.598Z,84.20
2018-12-25T06:03:03.558Z,83.68
2018-12-25T06:04:03.553Z,83.47
2018-12-25T06:05:03.543Z,83.30
2018-12-25T06:06:03.519Z,83.68
2018-12-25T06:07:03.806Z,83.68
2018-12-25T06:08:03.491Z,84.13
2018-12-25T06:09:03.489Z,82.43
2018-12-25T06:10:03.484Z,83.47
2018-12-25T06:11:03.466Z,83.37
2018-12-25T06:12:03.464Z,83.47
2018-12-25T06:13:03.490Z,83.68
2018-12-25T06:14:03.430Z,83.68
2018-12-25T06:15:03.474Z,82.74
2018-12-25T06:16:03.436Z,83.89
2018-12-25T06:17:03.406Z,83.47
2018-12-25T06:18:03.393Z,84.09
2018-12-25T06:19:03.373Z,83.47
2018-12-25T06:20:03.367Z,82.60
2018-12-25T06:21:03.405Z,83.64
2018-12-25T06:22:03.347Z,83.95
2018-12-25T06:23:03.342Z,82.91
2018-12-25T06:24:03.375Z,83.12
2018-12-25T06:25:03.314Z,83.22
2018-12-25T06:26:03.308Z,83.33
2018-12-25T06:27:03.286Z,82.91
2018-12-25T06:28:03.283Z,82.50
2018-12-25T06:29:03.292Z,82.81
2018-12-25T06:30:03.300Z,83.47
2018-12-25T06:31:03.246Z,83.01
2018-12-25T06:32:03.280Z,82.95
2018-12-25T06:33:03.233Z,82.70
2018-12-25T06:34:03.208Z,83.47
2018-12-25T06:35:03.202Z,83.58
2018-12-25T06:36:03.190Z,83.05
2018-12-25T06:37:03.236Z,82.84
2018-12-25T06:38:03.182Z,83.26
2018-12-25T06:39:03.170Z,83.37
2018-12-25T06:40:03.156Z,83.37
2018-12-25T06:41:03.139Z,83.37
2018-12-25T06:42:03.150Z,83.68
2018-12-25T06:43:03.166Z,83.16
2018-12-25T06:44:03.110Z,83.37
2018-12-25T06:45:03.095Z,83.58
2018-12-25T06:46:03.090Z,82.70
2018-12-25T06:47:03.095Z,83.26
2018-12-25T06:48:03.131Z,82.81
2018-12-25T06:49:03.052Z,82.84
2018-12-25T06:50:03.046Z,83.05
2018-12-25T06:51:04.043Z,83.05
2018-12-25T06:52:03.029Z,83.05
2018-12-25T06:53:03.055Z,83.78
2018-12-25T06:54:03.000Z,83.37
2018-12-25T06:55:03.074Z,83.47
2018-12-25T06:56:02.977Z,82.50
2018-12-25T06:57:02.991Z,83.26
2018-12-25T06:58:02.964Z,83.26
2018-12-25T06:59:02.982Z,82.95
2018-12-25T07:00:02.934Z,83.05
2018-12-25T07:01:02.936Z,82.84
2018-12-25T07:02:02.910Z,83.68
2018-12-25T07:03:02.900Z,82.91
2018-12-25T07:04:02.949Z,83.05
2018-12-25T07:05:02.872Z,83.22
2018-12-25T07:06:02.890Z,83.12
2018-12-25T07:07:02.861Z,81.98
2018-12-25T07:08:02.843Z,83.33
2018-12-25T07:09:02.849Z,83.53
2018-12-25T07:10:02.881Z,82.01
2018-12-25T07:11:02.816Z,82.01
2018-12-25T07:12:02.799Z,83.74
2018-12-25T07:13:02.808Z,82.91
2018-12-25T07:14:02.783Z,83.43
2018-12-25T07:15:02.773Z,82.29
2018-12-25T07:16:02.797Z,83.22
2018-12-25T07:17:02.753Z,82.50
2018-12-25T07:18:02.783Z,81.87
2018-12-25T07:19:02.734Z,82.70
2018-12-25T07:20:02.717Z,82.60
2018-12-25T07:21:02.701Z,82.18
2018-12-25T07:22:02.830Z,83.33
2018-12-25T07:23:02.680Z,83.01
2018-12-25T07:24:02.672Z,82.91
2018-12-25T07:25:02.657Z,82.08
2018-12-25T07:26:02.646Z,82.50
2018-12-25T07:27:02.633Z,82.32
2018-12-25T07:28:02.700Z,83.43
2018-12-25T07:29:02.618Z,82.43
2018-12-25T07:30:02.604Z,82.74
2018-12-25T07:31:02.616Z,83.47
2018-12-25T07:32:02.609Z,83.43
2018-12-25T07:33:02.623Z,82.81
2018-12-25T07:34:02.564Z,83.22
2018-12-25T07:35:02.556Z,82.18
2018-12-25T07:36:02.550Z,82.50
2018-12-25T07:37:02.525Z,83.08
2018-12-25T07:38:02.520Z,82.04
2018-12-25T07:39:02.547Z,81.35
2018-12-25T07:40:02.498Z,81.87
2018-12-25T07:41:02.533Z,82.50
2018-12-25T07:42:02.469Z,83.22
2018-12-25T07:43:02.501Z,83.12
2018-12-25T07:44:02.493Z,83.29
2018-12-25T07:45:02.444Z,81.87
2018-12-25T07:46:02.430Z,81.98
2018-12-25T07:47:02.430Z,82.87
2018-12-25T07:48:02.418Z,81.98
2018-12-25T07:49:02.392Z,82.70
2018-12-25T07:50:02.423Z,82.56
2018-12-25T07:51:02.375Z,81.77
2018-12-25T07:52:02.363Z,82.91
2018-12-25T07:53:02.359Z,83.01
2018-12-25T07:54:02.379Z,82.91
2018-12-25T07:55:02.380Z,83.01
2018-12-25T07:56:02.360Z,82.91
2018-12-25T07:57:02.309Z,82.50
2018-12-25T07:58:02.327Z,83.22
2018-12-25T07:59:02.288Z,82.81
2018-12-25T08:00:02.358Z,83.22
2018-12-25T08:01:02.265Z,83.22
2018-12-25T08:02:02.302Z,83.01
2018-12-25T08:03:02.261Z,84.05
2018-12-25T08:04:02.253Z,84.37
2018-12-25T08:05:02.226Z,83.01
2018-12-25T08:06:02.213Z,83.37
2018-12-25T08:07:02.220Z,83.43
2018-12-25T08:08:02.228Z,83.64
2018-12-25T08:09:02.182Z,83.33
2018-12-25T08:10:02.167Z,82.74
2018-12-25T08:11:02.162Z,84.09
2018-12-25T08:12:02.153Z,84.27
2018-12-25T08:13:02.148Z,83.53
2018-12-25T08:14:02.176Z,83.74
2018-12-25T08:15:02.124Z,83.01
2018-12-25T08:16:02.119Z,83.89
2018-12-25T08:17:02.090Z,83.68
2018-12-25T08:18:02.091Z,83.43
2018-12-25T08:19:02.073Z,83.58
2018-12-25T08:20:02.115Z,83.99
2018-12-25T08:21:02.050Z,84.05
2018-12-25T08:22:02.038Z,84.05
2018-12-25T08:23:02.630Z,84.37
2018-12-25T08:24:02.018Z,84.37
2018-12-25T08:25:02.005Z,84.01
2018-12-25T08:26:02.032Z,82.91
2018-12-25T08:27:02.022Z,83.74
2018-12-25T08:28:01.986Z,82.87
2018-12-25T08:29:01.963Z,83.84
2018-12-25T08:30:01.970Z,83.39
2018-12-25T08:31:01.937Z,83.60
2018-12-25T08:32:01.934Z,83.39
2018-12-25T08:33:01.961Z,83.91
2018-12-25T08:34:01.927Z,83.29
2018-12-25T08:35:01.908Z,82.77
2018-12-25T08:36:01.899Z,83.18
2018-12-25T08:37:01.917Z,83.15
2018-12-25T08:38:01.865Z,82.98
2018-12-25T08:39:01.853Z,82.73
2018-12-25T08:40:01.849Z,82.87
2018-12-25T08:41:01.892Z,82.94
2018-12-25T08:42:01.870Z,82.42
2018-12-25T08:43:01.813Z,82.53
2018-12-25T08:44:01.801Z,82.32
2018-12-25T08:45:01.788Z,81.38
2018-12-25T08:46:01.779Z,81.18
2018-12-25T08:47:02.747Z,81.90
2018-12-25T08:48:01.835Z,81.73
2018-12-25T08:49:01.749Z,81.59
2018-12-25T08:50:01.780Z,82.11
2018-12-25T08:51:01.728Z,82.94
2018-12-25T08:52:01.712Z,81.70
2018-12-25T08:53:01.703Z,82.01
2018-12-25T08:54:01.717Z,81.28
2018-12-25T08:55:01.731Z,81.76
2018-12-25T08:56:01.729Z,81.56
2018-12-25T08:57:01.665Z,81.45
2018-12-25T08:58:01.650Z,80.41
2018-12-25T08:59:01.691Z,81.07
2018-12-25T09:00:01.627Z,80.04
2018-12-25T09:01:01.683Z,81.49
2018-12-25T09:02:01.611Z,80.45
2018-12-25T09:03:01.603Z,82.01
2018-12-25T09:04:01.654Z,80.31
2018-12-25T09:05:01.578Z,81.35
2018-12-25T09:06:01.582Z,79.90
2018-12-25T09:07:01.551Z,80.10
2018-12-25T09:08:01.566Z,80.73
2018-12-25T09:09:01.539Z,80.83
2018-12-25T09:10:01.600Z,80.10
2018-12-25T09:11:01.542Z,80.73
2018-12-25T09:12:01.572Z,81.56
2018-12-25T09:13:01.485Z,81.35
2018-12-25T09:14:01.478Z,80.21
2018-12-25T09:15:01.467Z,81.62
2018-12-25T09:16:01.504Z,80.99
2018-12-25T09:17:01.449Z,81.62
2018-12-25T09:18:01.485Z,81.62
2018-12-25T09:19:01.434Z,80.58
2018-12-25T09:20:01.421Z,80.68
2018-12-25T09:21:01.428Z,80.68
2018-12-25T09:22:01.404Z,80.47
2018-12-25T09:23:01.439Z,80.47
2018-12-25T09:24:01.370Z,81.72
2018-12-25T09:25:01.449Z,81.16
2018-12-25T09:26:01.409Z,81.89
2018-12-25T09:27:01.345Z,79.92
2018-12-25T09:28:01.335Z,80.47
2018-12-25T09:29:01.330Z,80.23
2018-12-25T09:30:01.360Z,80.65
2018-12-25T09:31:01.311Z,80.23
2018-12-25T09:32:01.319Z,81.37
2018-12-25T09:33:01.311Z,79.92
2018-12-25T09:34:01.263Z,80.13
2018-12-25T09:35:01.264Z,79.82
2018-12-25T09:36:01.265Z,80.23
2018-12-25T09:37:01.274Z,80.23
2018-12-25T09:38:01.218Z,81.68
2018-12-25T09:39:01.211Z,80.19
2018-12-25T09:40:01.205Z,80.09
2018-12-25T09:41:01.197Z,79.99
2018-12-25T09:42:01.178Z,79.99
2018-12-25T09:43:01.236Z,79.78
2018-12-25T09:44:01.156Z,79.37
2018-12-25T09:45:01.144Z,80.19
2018-12-25T09:46:01.134Z,80.40
2018-12-25T09:47:01.391Z,79.68
2018-12-25T09:48:01.119Z,79.58
2018-12-25T09:49:01.099Z,80.30
2018-12-25T09:50:01.090Z,79.99
2018-12-25T09:51:01.128Z,80.40
2018-12-25T09:52:01.071Z,79.78
2018-12-25T09:53:01.136Z,79.16
2018-12-25T09:54:01.170Z,80.30
2018-12-25T09:55:01.045Z,79.99
2018-12-25T09:56:01.040Z,79.78
2018-12-25T09:57:01.025Z,80.92
2018-12-25T09:58:01.111Z,79.99
2018-12-25T09:59:01.038Z,79.37
2018-12-25T10:00:00.990Z,79.27
2018-12-25T10:01:00.970Z,79.16
2018-12-25T10:02:00.961Z,79.27
2018-12-25T10:03:00.970Z,80.05
2018-12-25T10:04:00.959Z,79.23
2018-12-25T10:05:00.981Z,79.13
2018-12-25T10:06:00.925Z,78.50
2018-12-25T10:07:00.919Z,78.81
2018-12-25T10:08:00.954Z,79.27
2018-12-25T10:09:00.889Z,79.23
2018-12-25T10:10:00.870Z,79.33
2018-12-25T10:11:00.878Z,79.44
2018-12-25T10:12:00.932Z,79.06
2018-12-25T10:13:00.876Z,78.85
2018-12-25T10:14:00.842Z,79.78
2018-12-25T10:15:00.820Z,79.27
2018-12-25T10:16:00.884Z,79.16
2018-12-25T10:17:00.796Z,80.09
2018-12-25T10:18:00.801Z,79.16
2018-12-25T10:19:00.798Z,79.37
2018-12-25T10:20:00.775Z,79.37
2018-12-25T10:21:00.757Z,79.16
2018-12-25T10:22:03.196Z,79.37
2018-12-25T10:23:00.735Z,79.27
2018-12-25T10:24:00.731Z,79.95
2018-12-25T10:25:00.713Z,79.58
2018-12-25T10:26:00.711Z,79.37
2018-12-25T10:27:00.708Z,78.96
2018-12-25T10:28:00.740Z,79.27
2018-12-25T10:29:00.690Z,78.50
2018-12-25T10:30:00.658Z,78.50
2018-12-25T10:31:00.644Z,79.23
2018-12-25T10:32:00.662Z,78.92
2018-12-25T10:33:00.910Z,78.67
2018-12-25T10:34:00.631Z,77.53
2018-12-25T10:35:00.600Z,77.43
2018-12-25T10:36:00.593Z,77.70
2018-12-25T10:37:00.599Z,77.70
2018-12-25T10:38:00.580Z,76.67
2018-12-25T10:39:00.610Z,76.36
2018-12-25T10:40:00.550Z,75.22
2018-12-25T10:41:00.564Z,75.43
2018-12-25T10:42:00.534Z,75.12
2018-12-25T10:43:00.529Z,76.36
2018-12-25T10:44:00.522Z,75.43
2018-12-25T10:45:00.556Z,76.15
2018-12-25T10:46:00.498Z,76.12
2018-12-25T10:47:00.517Z,76.43
2018-12-25T10:48:00.478Z,75.50
2018-12-25T10:49:00.450Z,76.81
2018-12-25T10:50:00.492Z,74.98
2018-12-25T10:51:00.444Z,75.15
2018-12-25T10:52:00.424Z,73.94
2018-12-25T10:53:00.409Z,74.95
2018-12-25T10:54:00.399Z,74.53
2018-12-25T10:55:00.404Z,74.43
2018-12-25T10:56:00.439Z,74.43
2018-12-25T10:57:00.364Z,74.22
2018-12-25T10:58:00.370Z,74.12
2018-12-25T10:59:00.340Z,73.50
2018-12-25T11:00:00.343Z,72.95
2018-12-25T11:01:00.330Z,73.36
2018-12-25T11:02:00.363Z,73.50
2018-12-25T11:03:00.307Z,72.78
2018-12-25T11:04:00.292Z,73.26
2018-12-25T11:05:00.300Z,73.16
2018-12-25T11:06:00.314Z,72.43
2018-12-25T11:07:00.276Z,72.64
2018-12-25T11:08:00.311Z,73.19
2018-12-25T11:09:00.236Z,73.08
2018-12-25T11:10:00.226Z,73.98
2018-12-25T11:11:00.219Z,72.74
2018-12-25T11:12:00.202Z,72.85
2018-12-25T11:13:00.189Z,73.33
2018-12-25T11:14:00.246Z,72.30
2018-12-25T11:15:00.287Z,72.40
2018-12-25T11:16:00.185Z,71.57
2018-12-25T11:17:00.149Z,72.26
2018-12-25T11:18:00.140Z,72.16
2018-12-25T11:19:00.157Z,70.92
2018-12-25T11:20:00.174Z,72.36
2018-12-25T11:21:00.103Z,70.95
2018-12-25T11:22:00.154Z,71.75
2018-12-25T11:23:00.147Z,72.26
2018-12-25T11:24:00.079Z,71.44
2018-12-25T11:25:00.251Z,72.16
2018-12-25T11:26:00.055Z,71.12
2018-12-25T11:27:00.045Z,71.64
2018-12-25T11:28:00.035Z,71.57
2018-12-25T11:29:00.079Z,72.06
2018-12-25T11:30:00.010Z,72.67
2018-12-25T11:31:00.039Z,72.57
2018-12-25T11:32:00.016Z,72.36
2018-12-25T11:32:59.977Z,71.85
2018-12-25T11:33:59.967Z,72.47
2018-12-25T11:34:59.950Z,71.44
2018-12-25T11:35:59.939Z,72.16
2018-12-25T11:36:59.980Z,72.26
2018-12-25T11:37:59.916Z,72.06
2018-12-25T11:38:59.907Z,71.85
2018-12-25T11:39:59.902Z,71.41
2018-12-25T11:40:59.884Z,72.23
2018-12-25T11:41:59.922Z,70.82
2018-12-25T11:42:59.860Z,72.33
2018-12-25T11:43:59.852Z,70.89
2018-12-25T11:44:59.840Z,71.95
2018-12-25T11:45:59.851Z,72.47
2018-12-25T11:46:59.869Z,72.61
2018-12-25T11:47:59.816Z,71.78
2018-12-25T11:48:59.791Z,72.19
2018-12-25T11:49:59.779Z,71.75
2018-12-25T11:50:59.783Z,71.81
2018-12-25T11:51:59.793Z,72.54
2018-12-25T11:52:59.788Z,70.99
2018-12-25T11:53:59.739Z,71.71
2018-12-25T11:54:59.746Z,70.99
2018-12-25T11:55:59.718Z,70.68
2018-12-25T11:56:59.709Z,71.06
2018-12-25T11:57:59.728Z,70.65
2018-12-25T11:58:59.967Z,69.51
2018-12-25T11:59:59.681Z,70.51
2018-12-25T12:00:59.666Z,70.72
2018-12-25T12:01:59.649Z,69.48
2018-12-25T12:02:59.650Z,69.69
2018-12-25T12:03:59.654Z,69.89
2018-12-25T12:04:59.681Z,70.51
2018-12-25T12:05:59.623Z,70.17
2018-12-25T12:06:59.592Z,68.96
2018-12-25T12:07:59.583Z,69.69
2018-12-25T12:08:59.571Z,69.79
2018-12-25T12:09:59.608Z,70.41
2018-12-25T12:10:59.563Z,70.92
2018-12-25T12:11:59.599Z,70.82
2018-12-25T12:12:59.536Z,70.75
2018-12-25T12:13:59.520Z,70.75
2018-12-25T12:14:59.521Z,70.82
2018-12-25T12:15:59.538Z,70.72
2018-12-25T12:16:59.488Z,70.31
2018-12-25T12:17:59.480Z,70.10
2018-12-25T12:18:59.478Z,70.62
2018-12-25T12:19:59.463Z,70.72
2018-12-25T12:20:59.453Z,69.76
2018-12-25T12:21:59.483Z,69.69
2018-12-25T12:22:59.419Z,68.96
2018-12-25T12:23:59.409Z,69.69
2018-12-25T12:24:59.402Z,69.48
2018-12-25T12:25:59.382Z,69.24
2018-12-25T12:26:59.380Z,68.83
2018-12-25T12:27:59.412Z,68.32
2018-12-25T12:28:59.377Z,68.42
2018-12-25T12:29:59.352Z,68.70
2018-12-25T12:30:59.346Z,68.83
2018-12-25T12:31:59.325Z,68.11
2018-12-25T12:32:59.305Z,68.49
2018-12-25T12:33:59.348Z,68.46
2018-12-25T12:34:59.303Z,67.74
2018-12-25T12:35:59.282Z,67.63
2018-12-25T12:36:59.269Z,68.29
2018-12-25T12:37:59.254Z,68.49
2018-12-25T12:38:59.252Z,67.43
2018-12-25T12:39:59.271Z,66.81
2018-12-25T12:40:59.227Z,67.15
2018-12-25T12:41:59.207Z,66.64
2018-12-25T12:42:59.278Z,66.36
2018-12-25T12:43:59.192Z,66.36
2018-12-25T12:44:59.187Z,67.70
2018-12-25T12:45:59.258Z,68.01
2018-12-25T12:46:59.162Z,67.29
2018-12-25T12:47:59.189Z,67.46
2018-12-25T12:48:59.171Z,67.05
2018-12-25T12:49:59.126Z,66.22
2018-12-25T12:50:59.149Z,66.36
2018-12-25T12:51:59.109Z,65.40